sensor_id;sensor_type;location;lat;lon;timestamp;pressure;altitude;pressure_sealevel;temperature;humidity
80851;BME280;70268;50.292;6.666;2023-06-22T00:00:37;96664.09;;;26.84;54.62
80851;BME280;70268;50.292;6.666;2023-06-22T00:03:06;96662.47;;;26.83;54.62
80851;BME280;70268;50.292;6.666;2023-06-22T00:05:35;96665.47;;;26.86;54.49
80851;BME280;70268;50.292;6.666;2023-06-22T00:08:04;96669.19;;;26.85;54.51
80851;BME280;70268;50.292;6.666;2023-06-22T00:10:33;96674.69;;;26.84;54.70
80851;BME280;70268;50.292;6.666;2023-06-22T00:13:04;96683.47;;;26.84;54.69
80851;BME280;70268;50.292;6.666;2023-06-22T00:15:33;96688.34;;;26.87;54.55
80851;BME280;70268;50.292;6.666;2023-06-22T00:18:02;96688.13;;;26.89;54.44
80851;BME280;70268;50.292;6.666;2023-06-22T00:20:30;96694.06;;;26.84;54.57
80851;BME280;70268;50.292;6.666;2023-06-22T00:23:00;96688.38;;;26.80;54.73
80851;BME280;70268;50.292;6.666;2023-06-22T00:25:28;96686.75;;;26.79;54.54
80851;BME280;70268;50.292;6.666;2023-06-22T00:27:57;96684.69;;;26.81;54.67
80851;BME280;70268;50.292;6.666;2023-06-22T00:30:28;96682.84;;;26.82;54.63
80851;BME280;70268;50.292;6.666;2023-06-22T00:32:58;96681.84;;;26.83;54.75
80851;BME280;70268;50.292;6.666;2023-06-22T00:35:27;96681.63;;;26.85;54.59
80851;BME280;70268;50.292;6.666;2023-06-22T00:37:56;96682.66;;;26.84;54.61
80851;BME280;70268;50.292;6.666;2023-06-22T00:40:30;96676.69;;;26.88;54.68
80851;BME280;70268;50.292;6.666;2023-06-22T00:42:59;96680.59;;;26.86;54.56
80851;BME280;70268;50.292;6.666;2023-06-22T00:45:30;96675.72;;;26.83;54.72
80851;BME280;70268;50.292;6.666;2023-06-22T00:47:59;96669.59;;;26.82;54.71
80851;BME280;70268;50.292;6.666;2023-06-22T00:50:29;96671.44;;;26.81;54.76
80851;BME280;70268;50.292;6.666;2023-06-22T00:53:05;96665.91;;;26.83;54.79
80851;BME280;70268;50.292;6.666;2023-06-22T00:55:37;96667.16;;;26.80;54.71
80851;BME280;70268;50.292;6.666;2023-06-22T00:58:06;96666.13;;;26.81;54.79
80851;BME280;70268;50.292;6.666;2023-06-22T01:00:40;96658.38;;;26.80;54.66
80851;BME280;70268;50.292;6.666;2023-06-22T01:03:09;96645.56;;;26.77;54.90
80851;BME280;70268;50.292;6.666;2023-06-22T01:05:39;96658.03;;;26.76;54.72
80851;BME280;70268;50.292;6.666;2023-06-22T01:08:22;96662.06;;;26.79;54.74
80851;BME280;70268;50.292;6.666;2023-06-22T01:10:53;96648.44;;;26.75;55.13
80851;BME280;70268;50.292;6.666;2023-06-22T01:13:30;96640.09;;;26.72;55.07
80851;BME280;70268;50.292;6.666;2023-06-22T01:16:07;96636.19;;;26.74;54.91
80851;BME280;70268;50.292;6.666;2023-06-22T01:18:42;96639.88;;;26.73;54.94
80851;BME280;70268;50.292;6.666;2023-06-22T01:21:14;96635.59;;;26.72;54.93
80851;BME280;70268;50.292;6.666;2023-06-22T01:23:54;96644.56;;;26.71;55.04
80851;BME280;70268;50.292;6.666;2023-06-22T01:26:35;96645.41;;;26.72;54.99
80851;BME280;70268;50.292;6.666;2023-06-22T01:29:08;96641.94;;;26.71;54.85
80851;BME280;70268;50.292;6.666;2023-06-22T01:31:39;96642.16;;;26.70;54.96
80851;BME280;70268;50.292;6.666;2023-06-22T01:34:09;96646.66;;;26.69;55.11
80851;BME280;70268;50.292;6.666;2023-06-22T01:36:40;96656.03;;;26.72;54.78
80851;BME280;70268;50.292;6.666;2023-06-22T01:39:09;96652.97;;;26.68;54.85
80851;BME280;70268;50.292;6.666;2023-06-22T01:41:39;96660.94;;;26.68;55.07
80851;BME280;70268;50.292;6.666;2023-06-22T01:44:12;96660.94;;;26.68;54.77
80851;BME280;70268;50.292;6.666;2023-06-22T01:46:41;96656.88;;;26.66;55.05
80851;BME280;70268;50.292;6.666;2023-06-22T01:49:10;96664.84;;;26.66;55.02
80851;BME280;70268;50.292;6.666;2023-06-22T01:51:39;96669.53;;;26.63;54.91
80851;BME280;70268;50.292;6.666;2023-06-22T01:54:07;96674.63;;;26.65;55.04
80851;BME280;70268;50.292;6.666;2023-06-22T01:56:36;96671.81;;;26.60;55.03
80851;BME280;70268;50.292;6.666;2023-06-22T01:59:11;96678.13;;;26.59;55.24
80851;BME280;70268;50.292;6.666;2023-06-22T02:01:44;96683.06;;;26.55;55.34
80851;BME280;70268;50.292;6.666;2023-06-22T02:04:19;96673.25;;;26.56;55.20
80851;BME280;70268;50.292;6.666;2023-06-22T02:06:51;96666.78;;;26.52;55.41
80851;BME280;70268;50.292;6.666;2023-06-22T02:09:24;96661.47;;;26.52;55.20
80851;BME280;70268;50.292;6.666;2023-06-22T02:11:55;96652.66;;;26.58;54.85
80851;BME280;70268;50.292;6.666;2023-06-22T02:14:27;96648.22;;;26.52;55.35
80851;BME280;70268;50.292;6.666;2023-06-22T02:16:56;96654.13;;;26.54;55.23
80851;BME280;70268;50.292;6.666;2023-06-22T02:19:27;96645.94;;;26.55;55.18
80851;BME280;70268;50.292;6.666;2023-06-22T02:22:00;96654.53;;;26.51;55.41
80851;BME280;70268;50.292;6.666;2023-06-22T02:24:29;96661.47;;;26.52;55.35
80851;BME280;70268;50.292;6.666;2023-06-22T02:26:59;96664.72;;;26.54;55.22
80851;BME280;70268;50.292;6.666;2023-06-22T02:29:29;96658.22;;;26.50;55.38
80851;BME280;70268;50.292;6.666;2023-06-22T02:31:58;96644.97;;;26.50;55.26
80851;BME280;70268;50.292;6.666;2023-06-22T02:34:26;96639.22;;;26.53;55.35
80851;BME280;70268;50.292;6.666;2023-06-22T02:36:55;96624.38;;;26.52;55.14
80851;BME280;70268;50.292;6.666;2023-06-22T02:39:24;96612.34;;;26.49;55.26
80851;BME280;70268;50.292;6.666;2023-06-22T02:41:54;96608.06;;;26.48;55.32
80851;BME280;70268;50.292;6.666;2023-06-22T02:44:23;96592.94;;;26.49;55.36
80851;BME280;70268;50.292;6.666;2023-06-22T02:46:53;96581.94;;;26.52;55.13
80851;BME280;70268;50.292;6.666;2023-06-22T02:49:23;96569.47;;;26.52;55.29
80851;BME280;70268;50.292;6.666;2023-06-22T02:51:51;96568.06;;;26.50;55.39
80851;BME280;70268;50.292;6.666;2023-06-22T02:54:21;96562.41;;;26.46;55.40
80851;BME280;70268;50.292;6.666;2023-06-22T02:56:52;96559.53;;;26.48;55.24
80851;BME280;70268;50.292;6.666;2023-06-22T02:59:22;96552.38;;;26.48;55.20
80851;BME280;70268;50.292;6.666;2023-06-22T03:02:00;96562.19;;;26.48;55.37
80851;BME280;70268;50.292;6.666;2023-06-22T03:04:32;96559.13;;;26.44;55.52
80851;BME280;70268;50.292;6.666;2023-06-22T03:07:00;96560.75;;;26.45;55.36
80851;BME280;70268;50.292;6.666;2023-06-22T03:09:31;96555.47;;;26.45;55.21
80851;BME280;70268;50.292;6.666;2023-06-22T03:12:00;96550.19;;;26.38;55.45
80851;BME280;70268;50.292;6.666;2023-06-22T03:14:40;96540.63;;;26.37;55.67
80851;BME280;70268;50.292;6.666;2023-06-22T03:17:10;96533.88;;;26.41;55.47
80851;BME280;70268;50.292;6.666;2023-06-22T03:19:39;96545.34;;;26.35;55.63
80851;BME280;70268;50.292;6.666;2023-06-22T03:22:08;96534.94;;;26.34;55.66
80851;BME280;70268;50.292;6.666;2023-06-22T03:24:40;96545.34;;;26.35;55.47
80851;BME280;70268;50.292;6.666;2023-06-22T03:27:08;96541.25;;;26.33;55.50
80851;BME280;70268;50.292;6.666;2023-06-22T03:29:37;96540.84;;;26.36;55.44
80851;BME280;70268;50.292;6.666;2023-06-22T03:32:06;96529.44;;;26.35;55.59
80851;BME280;70268;50.292;6.666;2023-06-22T03:34:36;96537.16;;;26.37;55.63
80851;BME280;70268;50.292;6.666;2023-06-22T03:37:05;96532.88;;;26.36;55.67
80851;BME280;70268;50.292;6.666;2023-06-22T03:39:34;96533.31;;;26.33;55.66
80851;BME280;70268;50.292;6.666;2023-06-22T03:42:04;96533.69;;;26.36;55.53
80851;BME280;70268;50.292;6.666;2023-06-22T03:44:32;96527.00;;;26.34;55.49
80851;BME280;70268;50.292;6.666;2023-06-22T03:47:05;96533.16;;;26.27;55.69
80851;BME280;70268;50.292;6.666;2023-06-22T03:49:37;96524.94;;;26.36;55.09
80851;BME280;70268;50.292;6.666;2023-06-22T03:52:06;96529.47;;;26.28;55.15
80851;BME280;70268;50.292;6.666;2023-06-22T03:54:35;96531.78;;;26.18;55.10
80851;BME280;70268;50.292;6.666;2023-06-22T03:57:04;96526.13;;;26.15;54.98
80851;BME280;70268;50.292;6.666;2023-06-22T03:59:33;96520.44;;;26.11;54.88
80851;BME280;70268;50.292;6.666;2023-06-22T04:02:02;96530.22;;;26.10;54.65
80851;BME280;70268;50.292;6.666;2023-06-22T04:04:30;96529.34;;;26.17;54.33
80851;BME280;70268;50.292;6.666;2023-06-22T04:07:01;96532.00;;;26.17;54.45
80851;BME280;70268;50.292;6.666;2023-06-22T04:09:29;96537.31;;;26.17;54.33
80851;BME280;70268;50.292;6.666;2023-06-22T04:11:58;96538.28;;;26.22;54.06
80851;BME280;70268;50.292;6.666;2023-06-22T04:14:26;96536.63;;;26.28;53.89
80851;BME280;70268;50.292;6.666;2023-06-22T04:16:55;96529.53;;;26.22;54.00
80851;BME280;70268;50.292;6.666;2023-06-22T04:19:24;96531.84;;;26.11;54.30
80851;BME280;70268;50.292;6.666;2023-06-22T04:21:52;96533.47;;;26.13;54.36
80851;BME280;70268;50.292;6.666;2023-06-22T04:24:22;96531.25;;;26.09;54.49
80851;BME280;70268;50.292;6.666;2023-06-22T04:26:51;96545.97;;;26.05;54.50
80851;BME280;70268;50.292;6.666;2023-06-22T04:29:22;96539.25;;;26.03;54.71
80851;BME280;70268;50.292;6.666;2023-06-22T04:31:56;96541.47;;;26.06;54.54
80851;BME280;70268;50.292;6.666;2023-06-22T04:34:25;96530.66;;;26.07;54.32
80851;BME280;70268;50.292;6.666;2023-06-22T04:36:54;96529.03;;;26.06;54.37
80851;BME280;70268;50.292;6.666;2023-06-22T04:39:24;96532.50;;;26.07;54.22
80851;BME280;70268;50.292;6.666;2023-06-22T04:41:54;96535.34;;;26.05;54.39
80851;BME280;70268;50.292;6.666;2023-06-22T04:44:27;96524.38;;;26.02;54.46
80851;BME280;70268;50.292;6.666;2023-06-22T04:46:57;96523.78;;;26.00;54.92
80851;BME280;70268;50.292;6.666;2023-06-22T04:49:30;96521.34;;;25.98;54.72
80851;BME280;70268;50.292;6.666;2023-06-22T04:52:02;96521.56;;;25.97;54.72
80851;BME280;70268;50.292;6.666;2023-06-22T04:54:34;96521.34;;;25.98;54.55
80851;BME280;70268;50.292;6.666;2023-06-22T04:57:05;96526.41;;;26.00;54.50
80851;BME280;70268;50.292;6.666;2023-06-22T04:59:37;96523.78;;;26.00;54.71
80851;BME280;70268;50.292;6.666;2023-06-22T05:02:09;96523.78;;;26.00;54.55
80851;BME280;70268;50.292;6.666;2023-06-22T05:04:38;96521.56;;;25.97;54.70
80851;BME280;70268;50.292;6.666;2023-06-22T05:07:07;96520.75;;;25.96;54.54
80851;BME280;70268;50.292;6.666;2023-06-22T05:09:38;96526.06;;;25.96;54.57
80851;BME280;70268;50.292;6.666;2023-06-22T05:12:07;96517.09;;;25.97;54.64
80851;BME280;70268;50.292;6.666;2023-06-22T05:14:37;96522.59;;;25.96;54.58
80851;BME280;70268;50.292;6.666;2023-06-22T05:17:06;96517.31;;;25.96;54.56
80851;BME280;70268;50.292;6.666;2023-06-22T05:19:42;96517.88;;;25.98;54.55
80851;BME280;70268;50.292;6.666;2023-06-22T05:22:15;96511.19;;;25.95;54.61
80851;BME280;70268;50.292;6.666;2023-06-22T05:24:45;96512.22;;;25.94;54.70
80851;BME280;70268;50.292;6.666;2023-06-22T05:27:14;96505.88;;;25.95;54.65
80851;BME280;70268;50.292;6.666;2023-06-22T05:29:43;96513.59;;;25.97;54.57
80851;BME280;70268;50.292;6.666;2023-06-22T05:32:11;96522.81;;;25.94;54.70
80851;BME280;70268;50.292;6.666;2023-06-22T05:34:40;96519.75;;;25.90;54.83
80851;BME280;70268;50.292;6.666;2023-06-22T05:37:08;96522.84;;;25.87;54.74
80851;BME280;70268;50.292;6.666;2023-06-22T05:39:37;96517.13;;;25.90;54.81
80851;BME280;70268;50.292;6.666;2023-06-22T05:42:08;96526.47;;;25.93;54.82
80851;BME280;70268;50.292;6.666;2023-06-22T05:44:37;96527.28;;;25.93;54.64
80851;BME280;70268;50.292;6.666;2023-06-22T05:47:08;96530.34;;;25.90;54.71
80851;BME280;70268;50.292;6.666;2023-06-22T05:49:36;96542.81;;;25.90;54.85
80851;BME280;70268;50.292;6.666;2023-06-22T05:52:05;96542.16;;;25.95;54.68
80851;BME280;70268;50.292;6.666;2023-06-22T05:54:34;96548.47;;;25.93;54.53
80851;BME280;70268;50.292;6.666;2023-06-22T05:57:03;96552.75;;;25.95;54.45
80851;BME280;70268;50.292;6.666;2023-06-22T05:59:33;96560.91;;;25.93;54.77
80851;BME280;70268;50.292;6.666;2023-06-22T06:02:02;96556.63;;;25.92;54.72
80851;BME280;70268;50.292;6.666;2023-06-22T06:04:31;96563.56;;;25.93;54.65
80851;BME280;70268;50.292;6.666;2023-06-22T06:07:00;96564.59;;;25.92;54.73
80851;BME280;70268;50.292;6.666;2023-06-22T06:09:29;96572.53;;;25.92;54.78
80851;BME280;70268;50.292;6.666;2023-06-22T06:11:58;96570.94;;;25.91;54.76
80851;BME280;70268;50.292;6.666;2023-06-22T06:14:26;96565.63;;;25.91;54.75
80851;BME280;70268;50.292;6.666;2023-06-22T06:16:56;96553.19;;;25.91;54.60
80851;BME280;70268;50.292;6.666;2023-06-22T06:19:25;96550.75;;;25.90;54.85
80851;BME280;70268;50.292;6.666;2023-06-22T06:21:53;96551.78;;;25.89;54.77
80851;BME280;70268;50.292;6.666;2023-06-22T06:24:22;96548.53;;;25.87;54.84
80851;BME280;70268;50.292;6.666;2023-06-22T06:26:50;96549.94;;;25.89;54.58
80851;BME280;70268;50.292;6.666;2023-06-22T06:29:19;96553.63;;;25.88;54.63
80851;BME280;70268;50.292;6.666;2023-06-22T06:31:47;96550.13;;;25.88;54.51
80851;BME280;70268;50.292;6.666;2023-06-22T06:34:20;96538.31;;;25.90;54.63
80851;BME280;70268;50.292;6.666;2023-06-22T06:36:48;96524.47;;;25.88;54.69
80851;BME280;70268;50.292;6.666;2023-06-22T06:39:17;96521.22;;;25.86;54.69
80851;BME280;70268;50.292;6.666;2023-06-22T06:41:45;96521.00;;;25.88;54.47
80851;BME280;70268;50.292;6.666;2023-06-22T06:44:15;96525.50;;;25.87;54.74
80851;BME280;70268;50.292;6.666;2023-06-22T06:46:44;96526.91;;;25.90;54.47
80851;BME280;70268;50.292;6.666;2023-06-22T06:49:12;96527.28;;;25.93;54.35
80851;BME280;70268;50.292;6.666;2023-06-22T06:51:43;96523.25;;;25.91;54.52
80851;BME280;70268;50.292;6.666;2023-06-22T06:54:11;96516.31;;;25.90;54.61
80851;BME280;70268;50.292;6.666;2023-06-22T06:56:40;96518.75;;;25.91;54.41
80851;BME280;70268;50.292;6.666;2023-06-22T06:59:15;96515.31;;;25.91;54.53
80851;BME280;70268;50.292;6.666;2023-06-22T07:01:44;96505.44;;;25.98;54.44
80851;BME280;70268;50.292;6.666;2023-06-22T07:04:12;96502.38;;;26.01;54.29
80851;BME280;70268;50.292;6.666;2023-06-22T07:06:42;96505.19;;;26.06;54.07
80851;BME280;70268;50.292;6.666;2023-06-22T07:09:11;96514.53;;;26.09;54.14
80851;BME280;70268;50.292;6.666;2023-06-22T07:11:39;96499.69;;;26.08;53.76
80851;BME280;70268;50.292;6.666;2023-06-22T07:14:08;96491.94;;;26.06;54.03
80851;BME280;70268;50.292;6.666;2023-06-22T07:16:36;96492.75;;;26.07;54.07
80851;BME280;70268;50.292;6.666;2023-06-22T07:19:05;96493.13;;;26.10;54.00
80851;BME280;70268;50.292;6.666;2023-06-22T07:21:36;96483.94;;;26.13;53.87
80851;BME280;70268;50.292;6.666;2023-06-22T07:24:06;96481.28;;;26.13;53.88
80851;BME280;70268;50.292;6.666;2023-06-22T07:26:35;96487.38;;;26.14;53.97
80851;BME280;70268;50.292;6.666;2023-06-22T07:29:03;96481.06;;;26.15;53.96
80851;BME280;70268;50.292;6.666;2023-06-22T07:31:32;96483.06;;;26.19;53.78
80851;BME280;70268;50.292;6.666;2023-06-22T07:34:01;96472.41;;;26.26;53.78
80851;BME280;70268;50.292;6.666;2023-06-22T07:36:30;96476.03;;;26.32;53.63
80851;BME280;70268;50.292;6.666;2023-06-22T07:38:58;96465.63;;;26.30;53.62
80851;BME280;70268;50.292;6.666;2023-06-22T07:41:28;96456.44;;;26.33;53.51
80851;BME280;70268;50.292;6.666;2023-06-22T07:43:57;96462.09;;;26.36;53.45
80851;BME280;70268;50.292;6.666;2023-06-22T07:46:25;96452.91;;;26.39;53.42
80851;BME280;70268;50.292;6.666;2023-06-22T07:48:54;96460.47;;;26.42;53.33
80851;BME280;70268;50.292;6.666;2023-06-22T07:51:23;96452.50;;;26.42;53.29
80851;BME280;70268;50.292;6.666;2023-06-22T07:53:51;96444.78;;;26.40;53.43
80851;BME280;70268;50.292;6.666;2023-06-22T07:56:20;96431.06;;;26.43;53.43
80851;BME280;70268;50.292;6.666;2023-06-22T07:58:50;96426.13;;;26.47;53.30
80851;BME280;70268;50.292;6.666;2023-06-22T08:01:19;96430.63;;;26.46;53.30
80851;BME280;70268;50.292;6.666;2023-06-22T08:03:48;96411.63;;;26.50;53.29
80851;BME280;70268;50.292;6.666;2023-06-22T08:06:17;96410.00;;;26.49;53.31
80851;BME280;70268;50.292;6.666;2023-06-22T08:08:45;96405.75;;;26.48;53.20
80851;BME280;70268;50.292;6.666;2023-06-22T08:11:16;96393.06;;;26.50;53.39
80851;BME280;70268;50.292;6.666;2023-06-22T08:13:44;96390.19;;;26.51;53.28
80851;BME280;70268;50.292;6.666;2023-06-22T08:16:14;96373.06;;;26.54;53.11
80851;BME280;70268;50.292;6.666;2023-06-22T08:18:43;96371.19;;;26.54;53.20
80851;BME280;70268;50.292;6.666;2023-06-22T08:21:11;96382.63;;;26.55;53.32
80851;BME280;70268;50.292;6.666;2023-06-22T08:23:40;96382.41;;;26.56;53.31
80851;BME280;70268;50.292;6.666;2023-06-22T08:26:09;96376.28;;;26.56;53.22
80851;BME280;70268;50.292;6.666;2023-06-22T08:28:37;96370.75;;;26.57;53.09
80851;BME280;70268;50.292;6.666;2023-06-22T08:31:06;96375.63;;;26.60;53.06
80851;BME280;70268;50.292;6.666;2023-06-22T08:33:36;96362.13;;;26.62;53.13
80851;BME280;70268;50.292;6.666;2023-06-22T08:36:16;96362.75;;;26.64;53.09
80851;BME280;70268;50.292;6.666;2023-06-22T08:38:44;96360.09;;;26.64;53.02
80851;BME280;70268;50.292;6.666;2023-06-22T08:41:18;96351.06;;;26.65;53.14
80851;BME280;70268;50.292;6.666;2023-06-22T08:43:46;96344.75;;;26.66;53.13
80851;BME280;70268;50.292;6.666;2023-06-22T08:46:15;96339.66;;;26.64;52.95
80851;BME280;70268;50.292;6.666;2023-06-22T08:48:48;96332.75;;;26.63;52.93
80851;BME280;70268;50.292;6.666;2023-06-22T08:51:17;96329.06;;;26.64;53.11
80851;BME280;70268;50.292;6.666;2023-06-22T08:53:46;96315.22;;;26.62;53.28
80851;BME280;70268;50.292;6.666;2023-06-22T08:56:14;96320.53;;;26.62;53.41
80851;BME280;70268;50.292;6.666;2023-06-22T08:58:43;96320.75;;;26.61;53.16
80851;BME280;70268;50.292;6.666;2023-06-22T09:01:11;96313.59;;;26.61;53.21
80851;BME280;70268;50.292;6.666;2023-06-22T09:03:42;96310.94;;;26.61;53.17
80851;BME280;70268;50.292;6.666;2023-06-22T09:06:12;96323.63;;;26.59;53.19
80851;BME280;70268;50.292;6.666;2023-06-22T09:08:42;96340.56;;;26.58;53.29
80851;BME280;70268;50.292;6.666;2023-06-22T09:11:10;96356.25;;;26.60;53.30
80851;BME280;70268;50.292;6.666;2023-06-22T09:13:39;96373.19;;;26.59;53.23
80851;BME280;70268;50.292;6.666;2023-06-22T09:16:07;96378.72;;;26.57;53.23
80851;BME280;70268;50.292;6.666;2023-06-22T09:18:36;96370.19;;;26.55;53.22
80851;BME280;70268;50.292;6.666;2023-06-22T09:21:04;96358.56;;;26.56;53.30
80851;BME280;70268;50.292;6.666;2023-06-22T09:23:34;96350.81;;;26.55;53.30
80851;BME280;70268;50.292;6.666;2023-06-22T09:26:03;96353.69;;;26.53;53.29
80851;BME280;70268;50.292;6.666;2023-06-22T09:28:32;96369.59;;;26.53;53.37
80851;BME280;70268;50.292;6.666;2023-06-22T09:31:01;96383.88;;;26.52;53.32
80851;BME280;70268;50.292;6.666;2023-06-22T09:33:29;96410.41;;;26.52;53.11
80851;BME280;70268;50.292;6.666;2023-06-22T09:35:58;96423.44;;;26.54;53.16
80851;BME280;70268;50.292;6.666;2023-06-22T09:38:26;96421.00;;;26.52;53.21
80851;BME280;70268;50.292;6.666;2023-06-22T09:40:56;96420.19;;;26.52;53.22
80851;BME280;70268;50.292;6.666;2023-06-22T09:43:25;96424.91;;;26.50;53.43
80851;BME280;70268;50.292;6.666;2023-06-22T09:45:53;96422.09;;;26.44;53.54
80851;BME280;70268;50.292;6.666;2023-06-22T09:48:22;96428.44;;;26.43;53.54
80851;BME280;70268;50.292;6.666;2023-06-22T09:50:51;96484.91;;;26.44;53.40
80851;BME280;70268;50.292;6.666;2023-06-22T09:53:19;96556.91;;;26.41;53.56
80851;BME280;70268;50.292;6.666;2023-06-22T09:55:48;96584.03;;;26.43;53.61
80851;BME280;70268;50.292;6.666;2023-06-22T09:58:18;96548.75;;;26.42;53.59
80851;BME280;70268;50.292;6.666;2023-06-22T10:00:46;96521.22;;;26.43;53.32
80851;BME280;70268;50.292;6.666;2023-06-22T10:03:15;96480.66;;;26.43;53.39
80851;BME280;70268;50.292;6.666;2023-06-22T10:05:44;96471.06;;;26.42;53.40
80851;BME280;70268;50.292;6.666;2023-06-22T10:08:13;96481.88;;;26.40;53.54
80851;BME280;70268;50.292;6.666;2023-06-22T10:10:42;96471.88;;;26.42;53.46
80851;BME280;70268;50.292;6.666;2023-06-22T10:13:10;96453.31;;;26.42;53.44
80851;BME280;70268;50.292;6.666;2023-06-22T10:15:41;96463.09;;;26.42;53.52
80851;BME280;70268;50.292;6.666;2023-06-22T10:18:10;96486.19;;;26.35;53.70
80851;BME280;70268;50.292;6.666;2023-06-22T10:20:38;96485.97;;;26.36;53.55
80851;BME280;70268;50.292;6.666;2023-06-22T10:23:07;96468.03;;;26.38;53.40
80851;BME280;70268;50.292;6.666;2023-06-22T10:25:35;96454.16;;;26.36;53.60
80851;BME280;70268;50.292;6.666;2023-06-22T10:28:04;96451.94;;;26.33;53.62
80851;BME280;70268;50.292;6.666;2023-06-22T10:30:32;96449.06;;;26.35;53.55
80851;BME280;70268;50.292;6.666;2023-06-22T10:33:03;96446.41;;;26.35;53.50
80851;BME280;70268;50.292;6.666;2023-06-22T10:35:31;96445.84;;;26.33;53.57
80851;BME280;70268;50.292;6.666;2023-06-22T10:38:00;96407.09;;;26.32;53.64
80851;BME280;70268;50.292;6.666;2023-06-22T10:40:29;96376.13;;;26.32;53.65
80851;BME280;70268;50.292;6.666;2023-06-22T10:42:57;96351.66;;;26.30;53.52
80851;BME280;70268;50.292;6.666;2023-06-22T10:45:26;96342.34;;;26.27;53.82
80851;BME280;70268;50.292;6.666;2023-06-22T10:47:56;96333.50;;;26.34;53.54
80851;BME280;70268;50.292;6.666;2023-06-22T10:50:26;96334.47;;;26.39;53.36
80851;BME280;70268;50.292;6.666;2023-06-22T10:52:55;96337.09;;;26.39;53.41
80851;BME280;70268;50.292;6.666;2023-06-22T10:55:26;96340.38;;;26.41;53.32
80851;BME280;70268;50.292;6.666;2023-06-22T10:58:13;96330.34;;;26.43;53.39
80851;BME280;70268;50.292;6.666;2023-06-22T11:00:41;96338.88;;;26.45;53.39
80851;BME280;70268;50.292;6.666;2023-06-22T11:03:10;96340.94;;;26.43;53.31
80851;BME280;70268;50.292;6.666;2023-06-22T11:05:42;96330.13;;;26.45;53.33
80851;BME280;70268;50.292;6.666;2023-06-22T11:08:11;96331.97;;;26.44;53.37
80851;BME280;70268;50.292;6.666;2023-06-22T11:10:39;96327.69;;;26.43;53.43
80851;BME280;70268;50.292;6.666;2023-06-22T11:13:08;96321.38;;;26.44;53.46
80851;BME280;70268;50.292;6.666;2023-06-22T11:15:38;96327.69;;;26.43;53.49
80851;BME280;70268;50.292;6.666;2023-06-22T11:18:07;96321.38;;;26.44;53.49
80851;BME280;70268;50.292;6.666;2023-06-22T11:20:35;96316.06;;;26.44;53.54
80851;BME280;70268;50.292;6.666;2023-06-22T11:23:07;96319.72;;;26.43;53.43
80851;BME280;70268;50.292;6.666;2023-06-22T11:25:36;96314.44;;;26.43;53.50
80851;BME280;70268;50.292;6.666;2023-06-22T11:28:05;96302.19;;;26.42;53.46
80851;BME280;70268;50.292;6.666;2023-06-22T11:30:34;96281.00;;;26.42;53.50
80851;BME280;70268;50.292;6.666;2023-06-22T11:33:03;96270.63;;;26.41;53.42
80851;BME280;70268;50.292;6.666;2023-06-22T11:35:31;96263.72;;;26.40;53.42
80851;BME280;70268;50.292;6.666;2023-06-22T11:38:00;96269.81;;;26.40;53.60
80851;BME280;70268;50.292;6.666;2023-06-22T11:40:32;96272.25;;;26.42;53.68
80851;BME280;70268;50.292;6.666;2023-06-22T11:43:00;96270.63;;;26.41;53.56
80851;BME280;70268;50.292;6.666;2023-06-22T11:45:29;96263.50;;;26.41;53.65
80851;BME280;70268;50.292;6.666;2023-06-22T11:47:57;96246.53;;;26.42;53.30
80851;BME280;70268;50.292;6.666;2023-06-22T11:50:26;96249.41;;;26.41;53.40
80851;BME280;70268;50.292;6.666;2023-06-22T11:52:57;96238.00;;;26.40;53.59
80851;BME280;70268;50.292;6.666;2023-06-22T11:55:26;96245.72;;;26.42;53.51
80851;BME280;70268;50.292;6.666;2023-06-22T11:57:57;96244.94;;;26.41;53.56
80851;BME280;70268;50.292;6.666;2023-06-22T12:00:30;96233.28;;;26.42;53.58
80851;BME280;70268;50.292;6.666;2023-06-22T12:03:08;96235.94;;;26.42;53.38
80851;BME280;70268;50.292;6.666;2023-06-22T12:05:38;96232.25;;;26.43;53.58
80851;BME280;70268;50.292;6.666;2023-06-22T12:08:07;96214.50;;;26.44;53.81
80851;BME280;70268;50.292;6.666;2023-06-22T12:10:35;96225.09;;;26.44;53.87
80851;BME280;70268;50.292;6.666;2023-06-22T12:13:05;96216.13;;;26.45;53.67
80851;BME280;70268;50.292;6.666;2023-06-22T12:15:34;96212.44;;;26.46;53.96
80851;BME280;70268;50.292;6.666;2023-06-22T12:18:03;96212.66;;;26.44;53.62
80851;BME280;70268;50.292;6.666;2023-06-22T12:20:32;96206.31;;;26.45;53.73
80851;BME280;70268;50.292;6.666;2023-06-22T12:23:01;96194.91;;;26.45;53.63
80851;BME280;70268;50.292;6.666;2023-06-22T12:25:29;96195.50;;;26.47;53.41
80851;BME280;70268;50.292;6.666;2023-06-22T12:27:58;96200.78;;;26.47;53.56
80851;BME280;70268;50.292;6.666;2023-06-22T12:30:28;96191.25;;;26.46;54.03
80851;BME280;70268;50.292;6.666;2023-06-22T12:32:57;96184.88;;;26.47;53.79
80851;BME280;70268;50.292;6.666;2023-06-22T12:35:26;96186.75;;;26.46;53.85
80851;BME280;70268;50.292;6.666;2023-06-22T12:37:54;96183.06;;;26.48;53.91
80851;BME280;70268;50.292;6.666;2023-06-22T12:40:23;96188.38;;;26.48;53.97
80851;BME280;70268;50.292;6.666;2023-06-22T12:42:52;96187.31;;;26.49;53.43
80851;BME280;70268;50.292;6.666;2023-06-22T12:45:21;96195.25;;;26.49;53.96
80851;BME280;70268;50.292;6.666;2023-06-22T12:47:51;96185.47;;;26.49;53.54
80851;BME280;70268;50.292;6.666;2023-06-22T12:50:19;96181.78;;;26.50;53.42
80851;BME280;70268;50.292;6.666;2023-06-22T12:52:48;96195.03;;;26.50;53.49
80851;BME280;70268;50.292;6.666;2023-06-22T12:55:16;96187.91;;;26.51;53.66
80851;BME280;70268;50.292;6.666;2023-06-22T12:57:45;96179.97;;;26.51;53.59
80851;BME280;70268;50.292;6.666;2023-06-22T13:00:14;96184.22;;;26.52;53.70
80851;BME280;70268;50.292;6.666;2023-06-22T13:02:43;96180.75;;;26.51;53.57
80851;BME280;70268;50.292;6.666;2023-06-22T13:05:13;96174.44;;;26.52;53.58
80851;BME280;70268;50.292;6.666;2023-06-22T13:07:42;96167.28;;;26.53;53.47
80851;BME280;70268;50.292;6.666;2023-06-22T13:10:11;96139.97;;;26.52;53.59
80851;BME280;70268;50.292;6.666;2023-06-22T13:12:39;96125.69;;;26.53;53.58